createdAt,value
2017-04-10T00:00:24.962Z,44.00
2017-04-10T00:01:24.707Z,43.80
2017-04-10T00:02:24.491Z,43.80
2017-04-10T00:03:24.214Z,44.00
2017-04-10T00:04:23.925Z,43.80
2017-04-10T00:05:23.675Z,43.60
2017-04-10T00:06:23.414Z,43.80
2017-04-10T00:07:23.162Z,43.50
2017-04-10T00:08:24.843Z,43.70
2017-04-10T00:09:24.615Z,44.00
2017-04-10T00:10:24.369Z,44.60
2017-04-10T00:11:25.286Z,44.70
2017-04-10T00:12:24.979Z,44.40
2017-04-10T00:13:25.300Z,44.10
2017-04-10T00:14:25.045Z,44.60
2017-04-10T00:15:24.741Z,45.30
2017-04-10T00:16:24.471Z,45.80
2017-04-10T00:17:24.275Z,46.40
2017-04-10T00:18:24.292Z,46.60
2017-04-10T00:20:26.564Z,46.50
2017-04-10T00:21:26.563Z,46.00
2017-04-10T00:22:26.365Z,46.60
2017-04-10T00:23:26.364Z,46.40
2017-04-10T00:24:26.050Z,46.30
2017-04-10T00:25:25.820Z,46.30
2017-04-10T00:26:25.483Z,46.90
2017-04-10T00:27:25.175Z,47.20
2017-04-10T00:28:24.939Z,47.50
2017-04-10T00:29:24.654Z,47.50
2017-04-10T00:30:24.359Z,47.60
2017-04-10T00:31:24.093Z,47.40
2017-04-10T00:32:23.775Z,47.10
2017-04-10T00:33:23.449Z,46.90
2017-04-10T00:34:23.103Z,47.90
2017-04-10T00:35:22.850Z,47.60
2017-04-10T00:36:22.536Z,47.70
2017-04-10T00:37:22.275Z,47.80
2017-04-10T00:38:21.972Z,48.20
2017-04-10T00:39:21.722Z,47.80
2017-04-10T00:40:21.423Z,47.40
2017-04-10T00:41:21.181Z,47.70
2017-04-10T00:42:20.907Z,47.90
2017-04-10T00:43:20.590Z,48.40
2017-04-10T00:44:20.774Z,48.90
2017-04-10T00:45:20.502Z,49.80
2017-04-10T00:46:20.425Z,50.40
2017-04-10T00:47:20.197Z,50.70
2017-04-10T00:48:19.917Z,51.00
2017-04-10T00:49:19.594Z,51.70
2017-04-10T00:50:22.462Z,51.50
2017-04-10T00:51:22.115Z,51.50
2017-04-10T00:52:21.811Z,51.30
2017-04-10T00:53:21.521Z,51.10
2017-04-10T00:54:21.491Z,51.30
2017-04-10T00:55:21.192Z,51.00
2017-04-10T00:56:21.202Z,50.90
2017-04-10T00:57:20.927Z,51.10
2017-04-10T00:58:20.608Z,51.20
2017-04-10T00:59:20.313Z,51.40
2017-04-10T01:00:20.072Z,50.40
2017-04-10T01:01:19.776Z,50.60
2017-04-10T01:02:19.464Z,50.90
2017-04-10T01:03:19.168Z,51.20
2017-04-10T01:04:18.875Z,50.60
2017-04-10T01:05:18.575Z,50.70
2017-04-10T01:06:18.264Z,50.30
2017-04-10T01:07:18.166Z,50.00
2017-04-10T01:08:18.027Z,49.70
2017-04-10T01:09:17.879Z,49.70
2017-04-10T01:10:17.655Z,49.50
2017-04-10T01:11:17.444Z,50.00
2017-04-10T01:12:17.219Z,50.10
2017-04-10T01:13:17.201Z,50.00
2017-04-10T01:14:16.895Z,50.10
2017-04-10T01:15:16.638Z,50.40
2017-04-10T01:16:16.343Z,50.90
2017-04-10T01:17:16.079Z,50.90
2017-04-10T01:18:15.739Z,51.10
2017-04-10T01:19:15.433Z,50.80
2017-04-10T01:20:15.115Z,50.30
2017-04-10T01:21:14.805Z,49.60
2017-04-10T01:22:14.479Z,50.10
2017-04-10T01:23:14.253Z,50.90
2017-04-10T01:24:13.928Z,50.70
2017-04-10T01:25:13.585Z,50.90
2017-04-10T01:26:13.306Z,51.10
2017-04-10T01:27:13.074Z,51.40
2017-04-10T01:28:12.864Z,51.20
2017-04-10T01:29:12.606Z,50.80
2017-04-10T01:30:13.673Z,50.90
2017-04-10T01:31:13.372Z,51.00
2017-04-10T01:32:13.117Z,50.90
2017-04-10T01:33:12.879Z,50.90
2017-04-10T01:34:12.639Z,51.20
2017-04-10T01:35:12.311Z,51.20
2017-04-10T01:36:12.022Z,52.40
2017-04-10T01:37:11.872Z,52.80
2017-04-10T01:38:11.572Z,53.30
2017-04-10T01:39:11.265Z,53.00
2017-04-10T01:40:10.997Z,53.10
2017-04-10T01:41:10.680Z,53.10
2017-04-10T01:42:10.312Z,52.70
2017-04-10T01:43:09.994Z,53.00
2017-04-10T01:44:09.663Z,52.70
2017-04-10T01:45:09.395Z,53.50
2017-04-10T01:46:10.214Z,53.80
2017-04-10T01:47:09.956Z,53.80
2017-04-10T01:48:09.676Z,54.20
2017-04-10T01:49:09.390Z,53.30
2017-04-10T01:50:09.088Z,53.50
2017-04-10T01:51:08.891Z,53.10
2017-04-10T01:52:08.599Z,53.20
2017-04-10T01:53:08.508Z,53.50
2017-04-10T01:54:08.179Z,53.70
2017-04-10T01:55:07.876Z,54.00
2017-04-10T01:56:07.576Z,54.40
2017-04-10T01:57:07.255Z,55.40
2017-04-10T01:58:06.932Z,55.60
2017-04-10T01:59:06.656Z,55.80
2017-04-10T02:00:06.376Z,56.00
2017-04-10T02:01:06.053Z,56.60
2017-04-10T02:02:05.759Z,56.30
2017-04-10T02:03:05.508Z,56.50
2017-04-10T02:04:05.214Z,56.70
2017-04-10T02:05:04.920Z,56.00
2017-04-10T02:06:04.659Z,56.60
2017-04-10T02:07:04.367Z,57.40
2017-04-10T02:08:04.147Z,57.60
2017-04-10T02:09:03.904Z,56.40
2017-04-10T02:10:03.638Z,56.10
2017-04-10T02:11:03.362Z,55.80
2017-04-10T02:12:03.064Z,55.20
2017-04-10T02:13:02.777Z,55.40
2017-04-10T02:14:02.837Z,55.80
2017-04-10T02:15:02.597Z,55.00
2017-04-10T02:16:02.479Z,54.50
2017-04-10T02:17:02.194Z,54.20
2017-04-10T02:18:01.867Z,54.50
2017-04-10T02:19:01.540Z,54.50
2017-04-10T02:20:01.357Z,53.30
2017-04-10T02:21:01.044Z,53.30
2017-04-10T02:22:00.786Z,53.60
2017-04-10T02:23:00.450Z,54.10
2017-04-10T02:24:00.112Z,54.10
2017-04-10T02:24:59.809Z,53.60
2017-04-10T02:25:59.531Z,54.00
2017-04-10T02:26:59.262Z,53.80
2017-04-10T02:27:58.987Z,54.00
2017-04-10T02:28:58.693Z,53.90
2017-04-10T02:29:58.388Z,53.60
2017-04-10T02:30:58.053Z,54.10
2017-04-10T02:31:57.757Z,53.80
2017-04-10T02:32:57.468Z,54.10
2017-04-10T02:33:57.184Z,54.00
2017-04-10T02:34:57.027Z,54.00
2017-04-10T02:35:56.767Z,54.40
2017-04-10T02:36:56.622Z,54.50
2017-04-10T02:37:57.055Z,54.50
2017-04-10T02:38:56.780Z,54.50
2017-04-10T02:39:56.782Z,55.00
2017-04-10T02:40:56.500Z,54.60
2017-04-10T02:41:56.181Z,54.60
2017-04-10T02:42:55.864Z,54.70
2017-04-10T02:43:55.582Z,55.30
2017-04-10T02:44:55.240Z,54.90
2017-04-10T02:45:55.021Z,54.80
2017-04-10T02:46:54.657Z,55.70
2017-04-10T02:47:54.340Z,55.20
2017-04-10T02:48:54.096Z,54.80
2017-04-10T02:49:53.806Z,55.00
2017-04-10T02:50:53.518Z,55.00
2017-04-10T02:51:53.227Z,55.10
2017-04-10T02:52:52.902Z,55.10
2017-04-10T02:53:52.574Z,54.40
2017-04-10T02:54:52.279Z,54.30
2017-04-10T02:55:52.251Z,53.90
2017-04-10T02:56:51.971Z,53.70
2017-04-10T02:57:51.829Z,53.70
2017-04-10T02:58:51.530Z,54.00
2017-04-10T02:59:51.263Z,53.70
2017-04-10T03:00:50.958Z,53.60
2017-04-10T03:01:50.678Z,53.70
2017-04-10T03:02:50.363Z,53.90
2017-04-10T03:03:50.049Z,53.50
2017-04-10T03:04:49.779Z,52.90
2017-04-10T03:05:49.491Z,52.80
2017-04-10T03:06:49.183Z,52.50
2017-04-10T03:07:48.868Z,52.60
2017-04-10T03:08:48.545Z,52.60
2017-04-10T03:09:48.349Z,52.60
2017-04-10T03:10:47.994Z,52.30
2017-04-10T03:11:47.705Z,52.00
2017-04-10T03:12:47.373Z,51.70
2017-04-10T03:13:47.368Z,51.60
2017-04-10T03:14:47.085Z,51.50
2017-04-10T03:15:46.771Z,51.70
2017-04-10T03:16:46.456Z,52.00
2017-04-10T03:17:46.096Z,52.60
2017-04-10T03:18:45.903Z,52.00
2017-04-10T03:19:45.577Z,52.10
2017-04-10T03:20:45.549Z,52.60
2017-04-10T03:21:45.207Z,53.20
2017-04-10T03:22:44.853Z,53.30
2017-04-10T03:23:44.570Z,52.50
2017-04-10T03:24:44.304Z,52.50
2017-04-10T03:25:44.007Z,52.40
2017-04-10T03:26:43.785Z,52.50
2017-04-10T03:27:43.470Z,52.50
2017-04-10T03:28:43.555Z,52.20
2017-04-10T03:29:43.546Z,52.00
2017-04-10T03:30:43.794Z,52.10
2017-04-10T03:31:44.559Z,51.80
2017-04-10T03:32:44.215Z,52.30
2017-04-10T03:33:45.345Z,52.50
2017-04-10T03:34:45.006Z,53.60
2017-04-10T03:35:44.676Z,53.80
2017-04-10T03:36:45.295Z,54.40
2017-04-10T03:37:45.370Z,54.60
2017-04-10T03:38:45.049Z,54.20
2017-04-10T03:39:46.492Z,54.60
2017-04-10T03:40:46.181Z,54.90
2017-04-10T03:41:46.079Z,55.00
2017-04-10T03:42:46.079Z,55.40
2017-04-10T03:43:46.485Z,55.40
2017-04-10T03:44:46.371Z,55.50
2017-04-10T03:45:47.055Z,55.70
2017-04-10T03:46:47.524Z,55.70
2017-04-10T03:47:49.106Z,55.90
2017-04-10T03:48:49.015Z,55.10
2017-04-10T03:49:49.955Z,55.10
2017-04-10T03:50:49.757Z,54.90
2017-04-10T03:51:49.959Z,54.80
2017-04-10T03:52:51.027Z,55.00
2017-04-10T03:53:52.032Z,54.80
2017-04-10T03:54:51.849Z,55.00
2017-04-10T03:55:51.978Z,55.70
2017-04-10T03:56:52.004Z,55.50
2017-04-10T03:57:51.691Z,55.40
2017-04-10T03:58:51.958Z,55.10
2017-04-10T03:59:52.004Z,55.20
2017-04-10T04:00:52.494Z,54.90
2017-04-10T04:01:52.246Z,55.30
2017-04-10T04:02:52.527Z,54.90
2017-04-10T04:03:52.191Z,54.70
2017-04-10T04:04:52.433Z,54.20
2017-04-10T04:05:52.700Z,54.60
2017-04-10T04:06:53.081Z,54.60
2017-04-10T04:07:53.776Z,54.60
2017-04-10T04:08:55.905Z,54.60
2017-04-10T04:09:55.670Z,55.40
2017-04-10T04:10:57.841Z,54.90
2017-04-10T04:11:57.715Z,55.00
2017-04-10T04:12:57.976Z,55.40
2017-04-10T04:13:58.070Z,54.70
2017-04-10T04:14:58.520Z,54.40
2017-04-10T04:15:58.595Z,54.20
2017-04-10T04:16:58.990Z,54.30
2017-04-10T04:17:59.291Z,54.50
2017-04-10T04:18:59.232Z,54.50
2017-04-10T04:20:00.139Z,54.30
2017-04-10T04:21:00.280Z,54.80
2017-04-10T04:22:00.066Z,54.80
2017-04-10T04:23:00.132Z,55.00
2017-04-10T04:24:00.027Z,55.50
2017-04-10T04:24:59.749Z,55.00
2017-04-10T04:25:59.690Z,54.00
2017-04-10T04:27:00.134Z,53.40
2017-04-10T04:27:59.822Z,53.50
2017-04-10T04:28:59.527Z,54.00
2017-04-10T04:30:00.581Z,54.00
2017-04-10T04:31:00.287Z,53.70
2017-04-10T04:32:00.329Z,53.80
2017-04-10T04:33:01.211Z,54.40
2017-04-10T04:34:01.940Z,54.60
2017-04-10T04:35:01.661Z,54.90
2017-04-10T04:36:01.387Z,54.80
2017-04-10T04:37:02.382Z,54.80
2017-04-10T04:38:02.887Z,55.10
2017-04-10T04:39:02.637Z,55.00
2017-04-10T04:40:03.647Z,54.70
2017-04-10T04:41:04.256Z,54.60
2017-04-10T04:42:04.991Z,54.60
2017-04-10T04:43:05.392Z,55.10
2017-04-10T04:44:05.331Z,55.10
2017-04-10T04:45:06.085Z,55.30
2017-04-10T04:46:05.787Z,55.90
2017-04-10T04:47:05.507Z,55.60
2017-04-10T04:48:05.474Z,55.40
2017-04-10T04:49:05.239Z,55.20
2017-04-10T04:50:05.022Z,55.80
2017-04-10T04:51:05.939Z,56.40
2017-04-10T04:52:06.839Z,56.50
2017-04-10T04:53:07.223Z,56.40
2017-04-10T04:54:07.425Z,56.10
2017-04-10T04:55:07.121Z,56.10
2017-04-10T04:56:06.846Z,56.10
2017-04-10T04:57:06.571Z,56.10
2017-04-10T04:58:06.686Z,56.10
2017-04-10T04:59:07.808Z,56.30
2017-04-10T05:00:07.899Z,56.60
2017-04-10T05:01:08.392Z,56.60
2017-04-10T05:02:08.103Z,56.60
2017-04-10T05:03:08.053Z,56.60
2017-04-10T05:04:08.146Z,56.80
2017-04-10T05:05:08.396Z,56.30
2017-04-10T05:06:08.372Z,56.60
2017-04-10T05:07:08.278Z,56.50
2017-04-10T05:08:08.587Z,56.20
2017-04-10T05:09:08.292Z,56.30
2017-04-10T05:10:08.133Z,56.50
2017-04-10T05:11:07.815Z,56.50
2017-04-10T05:12:07.722Z,56.20
2017-04-10T05:13:07.396Z,56.40
2017-04-10T05:14:08.816Z,56.40
2017-04-10T05:15:08.513Z,56.80
2017-04-10T05:16:08.175Z,56.60
2017-04-10T05:17:07.953Z,56.50
2017-04-10T05:18:10.399Z,56.60
2017-04-10T05:19:10.068Z,56.50
2017-04-10T05:20:11.096Z,56.50
2017-04-10T05:21:11.948Z,56.50
2017-04-10T05:22:11.630Z,57.20
2017-04-10T05:23:11.431Z,56.60
2017-04-10T05:24:11.179Z,56.90
2017-04-10T05:25:10.876Z,56.80
2017-04-10T05:26:10.702Z,56.80
2017-04-10T05:27:10.466Z,56.80
2017-04-10T05:28:10.220Z,56.60
2017-04-10T05:29:09.890Z,56.80
2017-04-10T05:30:09.808Z,57.10
2017-04-10T05:31:09.503Z,57.00
2017-04-10T05:32:09.327Z,57.20
2017-04-10T05:33:09.070Z,57.10
2017-04-10T05:34:08.870Z,57.10
2017-04-10T05:35:08.613Z,57.60
2017-04-10T05:36:08.335Z,57.20
2017-04-10T05:37:08.584Z,57.30
2017-04-10T05:38:08.295Z,57.40
2017-04-10T05:39:07.983Z,56.70
2017-04-10T05:40:07.751Z,56.50
2017-04-10T05:41:07.467Z,56.20
2017-04-10T05:42:07.192Z,56.60
2017-04-10T05:43:06.875Z,56.40
2017-04-10T05:44:06.604Z,56.60
2017-04-10T05:45:06.360Z,56.50
2017-04-10T05:46:06.071Z,56.20
2017-04-10T05:47:05.747Z,56.40
2017-04-10T05:48:05.499Z,55.50
2017-04-10T05:49:05.231Z,55.10
2017-04-10T05:50:04.999Z,54.30
2017-04-10T05:51:04.836Z,53.20
2017-04-10T05:52:04.561Z,52.50
2017-04-10T05:53:04.557Z,51.50
2017-04-10T05:54:04.294Z,51.60
2017-04-10T05:55:04.062Z,51.90
2017-04-10T05:56:03.812Z,51.90
2017-04-10T05:57:03.776Z,51.70
2017-04-10T05:58:03.671Z,51.30
2017-04-10T05:59:03.407Z,51.20
2017-04-10T06:00:03.194Z,51.30
2017-04-10T06:01:03.045Z,51.00
2017-04-10T06:02:02.760Z,51.10
2017-04-10T06:03:02.976Z,49.70
2017-04-10T06:04:02.796Z,50.00
2017-04-10T06:05:02.547Z,49.50
2017-04-10T06:06:03.287Z,49.20
2017-04-10T06:07:03.082Z,48.70
2017-04-10T06:08:03.038Z,49.80
2017-04-10T06:09:03.255Z,49.10
2017-04-10T06:10:04.306Z,48.80
2017-04-10T06:11:06.060Z,48.10
2017-04-10T06:12:09.155Z,48.20
2017-04-10T06:13:11.432Z,47.50
2017-04-10T06:14:12.276Z,48.50
2017-04-10T06:15:13.134Z,47.50
2017-04-10T06:16:14.550Z,47.70
2017-04-10T06:17:14.658Z,47.30
2017-04-10T06:18:15.162Z,48.00
2017-04-10T06:19:16.067Z,47.40
2017-04-10T06:20:21.704Z,47.30
2017-04-10T06:21:22.802Z,47.20
2017-04-10T06:22:23.236Z,47.80
2017-04-10T06:23:23.364Z,48.10
2017-04-10T06:24:25.401Z,47.60
2017-04-10T06:25:26.331Z,47.40
2017-04-10T06:26:33.973Z,48.80
2017-04-10T06:27:33.898Z,48.70
2017-04-10T06:28:44.219Z,46.90
2017-04-10T06:29:45.005Z,47.10
2017-04-10T06:30:46.339Z,46.60
2017-04-10T06:31:46.733Z,47.00
2017-04-10T06:32:51.187Z,46.80
2017-04-10T06:33:51.718Z,46.70
2017-04-10T06:34:55.898Z,47.30
2017-04-10T06:35:55.648Z,47.10
2017-04-10T06:37:01.098Z,46.80
2017-04-10T06:38:01.807Z,47.40
2017-04-10T06:39:09.028Z,46.60
2017-04-10T06:40:08.911Z,47.60
2017-04-10T06:41:13.682Z,46.40
2017-04-10T06:42:13.720Z,48.40
2017-04-10T06:43:15.691Z,49.00
2017-04-10T06:44:15.953Z,48.80
2017-04-10T06:45:16.827Z,47.90
2017-04-10T06:46:17.541Z,48.30
2017-04-10T06:47:19.085Z,46.40
2017-04-10T06:48:19.686Z,46.30
2017-04-10T06:49:23.763Z,47.00
2017-04-10T06:50:23.881Z,47.70
2017-04-10T06:51:23.660Z,48.90
2017-04-10T06:52:25.878Z,48.90
2017-04-10T06:53:26.002Z,49.60
2017-04-10T06:54:25.992Z,49.90
2017-04-10T06:55:27.686Z,50.00
2017-04-10T06:56:30.777Z,49.10
2017-04-10T06:57:31.671Z,48.00
2017-04-10T06:58:31.780Z,45.80
2017-04-10T06:59:32.693Z,45.50
2017-04-10T07:00:32.911Z,44.20
2017-04-10T07:01:32.671Z,43.70
2017-04-10T07:02:33.035Z,42.40
2017-04-10T07:03:33.582Z,40.40
2017-04-10T07:04:33.576Z,40.40
2017-04-10T07:05:34.138Z,42.00
2017-04-10T07:06:33.963Z,40.80
2017-04-10T07:07:33.866Z,39.30
2017-04-10T07:08:34.834Z,40.60
2017-04-10T07:09:36.187Z,40.60
2017-04-10T07:10:36.249Z,41.90
2017-04-10T07:11:36.216Z,41.70
2017-04-10T07:12:37.105Z,39.90
2017-04-10T07:13:36.933Z,38.30
2017-04-10T07:14:38.254Z,38.00
2017-04-10T07:15:38.060Z,38.30
2017-04-10T07:16:39.540Z,39.50
2017-04-10T07:17:39.909Z,40.00
2017-04-10T07:18:42.601Z,38.80
2017-04-10T07:19:43.475Z,40.70
2017-04-10T07:20:47.660Z,41.20
2017-04-10T07:21:48.454Z,41.10
2017-04-10T07:22:56.121Z,40.40
2017-04-10T07:23:56.715Z,40.00
2017-04-10T07:25:03.575Z,39.80
2017-04-10T07:26:04.514Z,40.00
2017-04-10T07:27:04.605Z,39.40
2017-04-10T07:28:05.718Z,39.10
2017-04-10T07:29:05.939Z,39.70
2017-04-10T07:30:05.814Z,39.60
2017-04-10T07:31:15.002Z,38.00
2017-04-10T07:32:14.823Z,37.00
2017-04-10T07:33:20.279Z,36.20
2017-04-10T07:34:20.604Z,35.90
2017-04-10T07:35:22.800Z,36.60
2017-04-10T07:36:23.068Z,36.20
2017-04-10T07:37:23.561Z,36.00
2017-04-10T07:38:23.557Z,36.90
2017-04-10T07:39:23.487Z,36.90
2017-04-10T07:40:23.378Z,37.20
2017-04-10T07:41:23.164Z,38.30
2017-04-10T07:42:22.879Z,39.10
2017-04-10T07:43:22.604Z,39.40
2017-04-10T07:44:28.137Z,38.80
2017-04-10T07:45:29.297Z,38.30
2017-04-10T07:46:30.563Z,36.30
2017-04-10T07:47:30.912Z,37.40
2017-04-10T07:48:31.551Z,35.70
2017-04-10T07:49:31.378Z,37.20
2017-04-10T07:50:31.114Z,37.70
2017-04-10T07:51:30.869Z,38.10
2017-04-10T07:52:30.619Z,37.00
2017-04-10T07:53:30.575Z,37.20
2017-04-10T07:54:30.293Z,38.90
2017-04-10T07:55:30.054Z,38.00
2017-04-10T07:56:29.772Z,40.20
2017-04-10T07:57:29.499Z,40.40
2017-04-10T07:58:29.279Z,39.30
2017-04-10T07:59:29.123Z,39.60
2017-04-10T08:00:28.970Z,40.70
2017-04-10T08:01:29.837Z,40.10
2017-04-10T08:02:30.025Z,40.10
2017-04-10T08:03:29.984Z,39.80
2017-04-10T08:04:32.463Z,39.90
2017-04-10T08:05:32.247Z,39.70
2017-04-10T08:06:37.445Z,37.70
2017-04-10T08:07:40.437Z,37.30
2017-04-10T08:08:49.845Z,38.10
2017-04-10T08:09:49.644Z,40.20
2017-04-10T08:10:51.672Z,40.00
2017-04-10T08:11:51.474Z,40.80
2017-04-10T08:12:55.854Z,41.70
2017-04-10T08:13:55.601Z,41.20
2017-04-10T08:15:02.487Z,38.50
2017-04-10T08:16:02.394Z,37.90
2017-04-10T08:17:04.891Z,39.20
2017-04-10T08:18:05.155Z,39.40
2017-04-10T08:19:06.169Z,39.40
2017-04-10T08:20:06.003Z,39.40
2017-04-10T08:21:05.773Z,39.70
2017-04-10T08:22:05.540Z,38.50
2017-04-10T08:23:05.904Z,37.70
2017-04-10T08:24:05.709Z,39.90
2017-04-10T08:25:05.513Z,40.70
2017-04-10T08:26:05.409Z,40.90
2017-04-10T08:27:05.251Z,40.90
2017-04-10T08:28:05.034Z,39.60
2017-04-10T08:29:04.856Z,38.50
2017-04-10T08:30:04.734Z,39.50
2017-04-10T08:31:04.791Z,39.70
2017-04-10T08:32:04.756Z,42.10
2017-04-10T08:33:04.729Z,44.20
2017-04-10T08:34:04.732Z,46.20
2017-04-10T08:35:04.791Z,46.30
2017-04-10T08:36:04.858Z,45.30
2017-04-10T08:37:04.956Z,44.30
2017-04-10T08:38:05.168Z,43.60
2017-04-10T08:39:05.643Z,44.30
2017-04-10T08:40:07.912Z,44.30
2017-04-10T08:41:08.009Z,43.70
2017-04-10T08:42:15.441Z,45.90
2017-04-10T08:43:15.756Z,46.80
2017-04-10T08:44:15.813Z,47.60
2017-04-10T08:45:15.865Z,48.80
2017-04-10T08:46:21.804Z,49.20
2017-04-10T08:47:21.801Z,49.50
2017-04-10T08:48:22.387Z,49.20
2017-04-10T08:49:23.112Z,49.40
2017-04-10T08:50:32.608Z,48.60
2017-04-10T08:51:35.743Z,49.50
2017-04-10T08:52:38.319Z,50.40
2017-04-10T08:53:38.771Z,50.00
2017-04-10T08:54:43.001Z,49.40
2017-04-10T08:55:43.241Z,50.60
2017-04-10T08:56:51.047Z,52.00
2017-04-10T08:57:51.030Z,53.50
2017-04-10T08:58:51.159Z,53.70
2017-04-10T08:59:51.666Z,51.60
2017-04-10T09:00:52.425Z,49.90
2017-04-10T09:01:52.278Z,48.60
2017-04-10T09:02:52.630Z,49.80
2017-04-10T09:03:52.578Z,49.30
2017-04-10T09:04:52.390Z,51.60
2017-04-10T09:05:52.324Z,50.80
2017-04-10T09:06:52.149Z,52.00
2017-04-10T09:07:51.916Z,52.90
2017-04-10T09:08:51.793Z,52.40
2017-04-10T09:09:52.000Z,52.80
2017-04-10T09:10:51.954Z,54.70
2017-04-10T09:11:51.801Z,55.00
2017-04-10T09:12:51.767Z,54.10
2017-04-10T09:13:51.883Z,53.50
2017-04-10T09:14:52.027Z,54.30
2017-04-10T09:15:51.882Z,52.80
2017-04-10T09:16:51.734Z,52.20
2017-04-10T09:17:52.017Z,52.80
2017-04-10T09:18:51.832Z,54.70
2017-04-10T09:19:52.184Z,54.80
2017-04-10T09:20:52.026Z,54.80
2017-04-10T09:21:52.032Z,54.80
2017-04-10T09:22:52.057Z,52.00
2017-04-10T09:23:52.091Z,52.30
2017-04-10T09:24:52.051Z,52.10
2017-04-10T09:25:54.542Z,53.50
2017-04-10T09:26:54.486Z,54.60
2017-04-10T09:27:55.043Z,54.90
2017-04-10T09:28:55.120Z,54.60
2017-04-10T09:29:55.616Z,55.00
2017-04-10T09:30:55.576Z,55.30
2017-04-10T09:31:55.822Z,53.60
2017-04-10T09:32:56.170Z,54.10
2017-04-10T09:33:57.382Z,52.60
2017-04-10T09:34:58.864Z,53.90
2017-04-10T09:35:58.934Z,52.10
2017-04-10T09:36:59.005Z,49.90
2017-04-10T09:37:59.007Z,49.60
2017-04-10T09:38:58.911Z,52.60
2017-04-10T09:39:59.794Z,52.90
2017-04-10T09:40:59.911Z,55.00
2017-04-10T09:41:59.808Z,55.90
2017-04-10T09:43:01.038Z,55.50
2017-04-10T09:44:02.572Z,55.80
2017-04-10T09:45:02.461Z,56.80
2017-04-10T09:46:02.762Z,57.90
2017-04-10T09:47:02.990Z,57.70
2017-04-10T09:48:03.312Z,56.30
2017-04-10T09:49:03.653Z,54.90
2017-04-10T09:50:04.219Z,53.90
2017-04-10T09:51:04.203Z,53.10
2017-04-10T09:52:04.398Z,52.10
2017-04-10T09:53:04.575Z,50.00
2017-04-10T09:54:04.712Z,48.50
2017-04-10T09:55:06.454Z,45.60
2017-04-10T09:56:06.268Z,45.30
2017-04-10T09:57:06.463Z,46.30
2017-04-10T09:58:06.816Z,48.50
2017-04-10T09:59:22.894Z,51.80
2017-04-10T10:00:23.191Z,53.80
2017-04-10T10:01:23.708Z,55.30
2017-04-10T10:02:23.782Z,57.10
2017-04-10T10:03:24.732Z,56.60
2017-04-10T10:04:25.133Z,57.70
2017-04-10T10:05:25.857Z,58.30
2017-04-10T10:06:27.079Z,59.10
2017-04-10T10:07:27.580Z,58.40
2017-04-10T10:08:27.372Z,55.40
2017-04-10T10:09:28.118Z,55.70
2017-04-10T10:10:28.951Z,56.80
2017-04-10T10:11:29.028Z,57.00
2017-04-10T10:12:33.091Z,52.60
2017-04-10T10:13:32.991Z,49.00
2017-04-10T10:14:33.278Z,48.40
2017-04-10T10:15:34.300Z,49.40
2017-04-10T10:16:35.404Z,45.60
2017-04-10T10:17:35.834Z,41.50
2017-04-10T10:18:36.057Z,43.80
2017-04-10T10:19:36.566Z,44.70
2017-04-10T10:20:38.006Z,43.40
2017-04-10T10:21:40.360Z,43.00
2017-04-10T10:22:41.224Z,45.90
2017-04-10T10:56:46.382Z,61.60
2017-04-10T10:57:49.056Z,61.60
2017-04-10T10:58:54.672Z,60.80
2017-04-10T10:59:59.050Z,61.00
2017-04-10T11:01:03.315Z,60.00
2017-04-10T11:02:06.347Z,59.80
2017-04-10T11:03:11.479Z,59.60
2017-04-10T11:04:16.595Z,59.60
2017-04-10T11:05:20.297Z,62.40
2017-04-10T11:06:22.888Z,62.40
2017-04-10T11:07:25.743Z,63.20
2017-04-10T11:08:28.245Z,62.70
2017-04-10T11:09:30.351Z,62.60
2017-04-10T11:10:34.442Z,62.50
2017-04-10T11:11:37.447Z,61.40
2017-04-10T11:12:40.311Z,61.50
2017-04-10T11:13:44.158Z,61.30
2017-04-10T11:14:47.862Z,60.80
2017-04-10T11:15:51.065Z,60.90
2017-04-10T11:16:52.823Z,60.90
2017-04-10T11:17:54.446Z,60.80
2017-04-10T11:18:59.432Z,60.50
2017-04-10T11:20:02.273Z,60.30
2017-04-10T11:21:09.047Z,60.00
2017-04-10T11:22:12.476Z,59.50
2017-04-10T11:23:16.934Z,60.00
2017-04-10T11:24:19.382Z,60.70
2017-04-10T11:25:20.724Z,61.80
2017-04-10T11:26:23.112Z,61.20
2017-04-10T11:27:27.019Z,61.50
2017-04-10T11:28:30.975Z,61.50
2017-04-10T11:29:33.868Z,61.30
2017-04-10T11:30:36.480Z,60.90
2017-04-10T11:31:37.485Z,61.50
2017-04-10T11:32:40.412Z,61.50
2017-04-10T11:33:42.382Z,60.70
2017-04-10T11:34:44.696Z,59.20
2017-04-10T11:35:45.272Z,59.00
2017-04-10T11:36:49.422Z,59.70
2017-04-10T11:37:50.201Z,59.60
2017-04-10T11:38:52.237Z,59.60
2017-04-10T11:39:53.188Z,58.70
2017-04-10T11:40:54.074Z,57.20
2017-04-10T11:41:54.655Z,58.10
2017-04-10T11:42:59.475Z,58.10
2017-04-10T11:44:00.305Z,57.70
2017-04-10T11:45:00.852Z,57.30
2017-04-10T11:46:01.716Z,55.90
2017-04-10T11:47:02.261Z,58.00
2017-04-10T11:48:02.950Z,59.00
2017-04-10T11:49:04.882Z,59.40
2017-04-10T11:50:06.387Z,60.00
2017-04-10T11:51:12.168Z,59.10
2017-04-10T11:52:16.712Z,58.40
2017-04-10T11:53:18.600Z,58.00
2017-04-10T11:54:20.523Z,59.00
2017-04-10T11:55:21.685Z,59.80
2017-04-10T11:56:26.018Z,58.50
2017-04-10T11:57:27.379Z,56.30
2017-04-10T11:58:31.567Z,55.40
2017-04-10T11:59:34.431Z,54.50
2017-04-10T12:00:39.650Z,53.70
2017-04-10T12:01:42.799Z,53.70
2017-04-10T12:02:45.037Z,54.10
2017-04-10T12:03:50.236Z,54.50
2017-04-10T12:04:55.068Z,54.50
2017-04-10T12:05:56.969Z,55.30
2017-04-10T12:07:00.832Z,55.30
2017-04-10T12:08:02.769Z,55.30
2017-04-10T12:09:05.719Z,55.00
2017-04-10T12:10:08.629Z,55.50
2017-04-10T12:11:11.741Z,54.90
2017-04-10T12:12:15.600Z,55.10
2017-04-10T12:13:19.756Z,54.90
2017-04-10T12:14:23.840Z,55.10
2017-04-10T12:15:25.214Z,55.60
2017-04-10T12:16:31.648Z,55.40
2017-04-10T12:17:36.594Z,54.90
2017-04-10T12:18:39.117Z,55.20
2017-04-10T12:19:41.492Z,55.80
2017-04-10T12:20:43.539Z,56.10
2017-04-10T12:21:46.100Z,55.50
2017-04-10T12:22:48.778Z,55.20
2017-04-10T12:23:52.132Z,54.60
2017-04-10T12:24:55.705Z,54.40
2017-04-10T12:25:59.861Z,55.10
2017-04-10T12:27:05.786Z,54.40
2017-04-10T12:28:11.811Z,52.90
2017-04-10T12:29:15.345Z,52.90
2017-04-10T12:30:21.551Z,51.30
2017-04-10T12:31:23.890Z,51.20
2017-04-10T12:32:28.690Z,50.90
2017-04-10T12:33:31.500Z,51.00
2017-04-10T12:34:40.503Z,50.30
2017-04-10T12:35:45.913Z,49.60
2017-04-10T12:36:54.240Z,50.50
2017-04-10T12:37:57.421Z,49.90
2017-04-10T12:39:00.237Z,49.80
2017-04-10T12:40:03.029Z,50.20
2017-04-10T12:41:05.552Z,51.00
2017-04-10T12:42:09.604Z,51.60
2017-04-10T12:43:12.923Z,52.00
2017-04-10T12:44:14.246Z,52.30
2017-04-10T12:45:14.659Z,52.30
2017-04-10T12:46:17.397Z,52.30
2017-04-10T12:47:21.318Z,52.80
2017-04-10T12:48:22.881Z,52.70
2017-04-10T12:49:29.387Z,53.00
2017-04-10T12:50:31.775Z,52.60
2017-04-10T12:51:38.049Z,52.90
2017-04-10T12:52:44.725Z,53.10
2017-04-10T12:53:47.096Z,54.40
2017-04-10T12:54:52.703Z,55.20
2017-04-10T12:56:05.339Z,55.80
2017-04-10T12:57:06.828Z,56.60
2017-04-10T12:58:18.209Z,57.40
2017-04-10T12:59:20.287Z,57.50
2017-04-10T13:00:22.033Z,57.80
2017-04-10T13:01:25.582Z,58.40
2017-04-10T13:02:27.489Z,58.10
2017-04-10T13:03:31.099Z,57.80
2017-04-10T13:04:33.452Z,57.20
2017-04-10T13:05:38.412Z,58.40
2017-04-10T13:06:41.750Z,57.80
2017-04-10T13:07:44.914Z,58.10
2017-04-10T13:08:49.396Z,57.50
2017-04-10T13:09:58.810Z,58.40
2017-04-10T13:11:01.833Z,58.50
2017-04-10T13:12:06.529Z,59.10
2017-04-10T13:13:09.381Z,58.40
2017-04-10T13:14:14.594Z,58.80
2017-04-10T13:15:26.797Z,59.40
2017-04-10T13:16:31.448Z,59.40
2017-04-10T13:17:37.457Z,58.50
2017-04-10T13:18:42.366Z,58.70
2017-04-10T13:19:49.422Z,58.50
2017-04-10T13:20:53.484Z,58.20
2017-04-10T13:21:57.073Z,58.40
2017-04-10T13:23:04.074Z,58.90
2017-04-10T13:24:08.181Z,59.20
2017-04-10T13:25:13.826Z,59.70
2017-04-10T13:26:20.426Z,59.60
2017-04-10T13:27:29.174Z,59.20
2017-04-10T13:28:33.401Z,59.10
2017-04-10T13:29:36.732Z,59.80
2017-04-10T13:30:39.743Z,60.00
2017-04-10T13:31:45.062Z,60.00
2017-04-10T13:32:49.483Z,60.40
2017-04-10T13:33:54.995Z,61.40
2017-04-10T13:34:57.933Z,61.90
2017-04-10T13:36:01.690Z,61.50
2017-04-10T13:37:05.931Z,61.90
2017-04-10T13:38:10.943Z,61.20
2017-04-10T13:39:13.871Z,61.50
2017-04-10T13:40:18.074Z,61.90